createdAt,value
2019-05-09T00:01:23.499Z,7.80
2019-05-09T00:03:50.963Z,5.67
2019-05-09T00:06:20.199Z,7.83
2019-05-09T00:08:49.388Z,7.37
2019-05-09T00:11:18.687Z,4.77
2019-05-09T00:13:47.839Z,6.90
2019-05-09T00:16:17.059Z,7.47
2019-05-09T00:18:46.280Z,5.93
2019-05-09T00:21:20.795Z,8.33
2019-05-09T00:23:51.277Z,6.80
2019-05-09T00:26:20.458Z,8.83
2019-05-09T00:28:53.247Z,7.47
2019-05-09T00:31:25.580Z,6.20
2019-05-09T00:33:56.910Z,8.23
2019-05-09T00:36:26.112Z,7.93
2019-05-09T00:38:55.336Z,5.97
2019-05-09T00:41:24.504Z,9.77
2019-05-09T00:43:58.927Z,7.37
2019-05-09T00:46:34.085Z,8.43
2019-05-09T00:49:05.249Z,7.43
2019-05-09T00:51:34.305Z,10.43
2019-05-09T00:54:04.192Z,7.67
2019-05-09T00:56:33.238Z,9.40
2019-05-09T00:59:03.704Z,5.23
2019-05-09T01:01:31.213Z,8.63
2019-05-09T01:04:00.387Z,5.33
2019-05-09T01:06:29.582Z,5.57
2019-05-09T01:08:58.829Z,6.33
2019-05-09T01:11:28.013Z,5.13
2019-05-09T01:13:58.058Z,8.63
2019-05-09T01:16:27.221Z,8.50
2019-05-09T01:18:56.411Z,9.97
2019-05-09T01:21:25.607Z,5.13
2019-05-09T01:23:54.821Z,8.67
2019-05-09T01:26:24.346Z,10.07
2019-05-09T01:28:53.978Z,7.97
2019-05-09T01:31:24.094Z,10.10
2019-05-09T01:33:55.393Z,5.37
2019-05-09T01:36:24.686Z,15.13
2019-05-09T01:38:54.079Z,7.47
2019-05-09T01:41:30.543Z,6.60
2019-05-09T01:43:53.657Z,7.63
2019-05-09T01:46:23.440Z,6.77
2019-05-09T01:48:50.695Z,7.80
2019-05-09T01:51:19.853Z,8.27
2019-05-09T01:53:53.029Z,6.87
2019-05-09T01:56:20.213Z,8.73
2019-05-09T01:58:49.440Z,9.47
2019-05-09T02:01:18.612Z,6.77
2019-05-09T02:03:47.800Z,8.03
2019-05-09T02:06:17.129Z,6.97
2019-05-09T02:08:46.288Z,9.93
2019-05-09T02:11:15.499Z,8.57
2019-05-09T02:13:44.741Z,7.07
2019-05-09T02:16:26.059Z,7.17
2019-05-09T02:19:04.026Z,5.07
2019-05-09T02:21:31.756Z,7.20
2019-05-09T02:24:03.080Z,7.53
2019-05-09T02:26:30.258Z,5.43
2019-05-09T02:28:59.446Z,11.00
2019-05-09T02:31:28.639Z,8.63
2019-05-09T02:33:57.843Z,4.80
2019-05-09T02:36:29.549Z,6.20
2019-05-09T02:38:58.899Z,9.60
2019-05-09T02:41:28.506Z,9.93
2019-05-09T02:43:54.771Z,7.10
2019-05-09T02:46:29.403Z,5.83
2019-05-09T02:48:59.441Z,4.97
2019-05-09T02:51:29.163Z,6.30
2019-05-09T02:53:58.465Z,6.00
2019-05-09T02:56:25.149Z,5.63
2019-05-09T02:59:59.362Z,7.23
2019-05-09T03:02:34.428Z,5.63
2019-05-09T03:05:03.721Z,6.87
2019-05-09T03:07:39.413Z,5.40
2019-05-09T03:10:08.964Z,6.43
2019-05-09T03:12:39.898Z,5.77
2019-05-09T03:15:09.038Z,7.33
2019-05-09T03:17:38.474Z,7.53
2019-05-09T03:20:04.715Z,8.20
2019-05-09T03:22:33.901Z,4.33
2019-05-09T03:25:03.124Z,6.07
2019-05-09T03:27:32.597Z,7.67
2019-05-09T03:30:01.850Z,10.30
2019-05-09T03:32:31.053Z,8.37
2019-05-09T03:35:00.226Z,7.60
2019-05-09T03:37:29.426Z,5.70
2019-05-09T03:39:58.620Z,7.27
2019-05-09T03:42:38.091Z,7.67
2019-05-09T03:44:58.043Z,7.63
2019-05-09T03:47:37.752Z,7.70
2019-05-09T03:50:11.648Z,8.57
2019-05-09T03:52:40.861Z,4.90
2019-05-09T03:55:12.757Z,5.53
2019-05-09T03:57:45.166Z,6.13
2019-05-09T04:00:14.340Z,6.87
2019-05-09T04:02:44.825Z,6.37
2019-05-09T04:05:13.998Z,6.47
2019-05-09T04:07:43.152Z,5.83
2019-05-09T04:10:12.413Z,5.77
2019-05-09T04:12:52.751Z,5.53
2019-05-09T04:15:11.986Z,8.17
2019-05-09T04:17:43.181Z,6.13
2019-05-09T04:20:12.892Z,6.20
2019-05-09T04:22:43.349Z,10.23
2019-05-09T04:25:18.116Z,9.10
2019-05-09T04:27:48.014Z,6.90
2019-05-09T04:30:15.625Z,5.37
2019-05-09T04:32:44.791Z,9.77
2019-05-09T04:35:13.994Z,8.13
2019-05-09T04:37:43.203Z,6.03
2019-05-09T04:40:12.408Z,5.67
2019-05-09T04:42:44.413Z,8.93
2019-05-09T04:45:17.698Z,9.97
2019-05-09T04:47:47.076Z,5.70
2019-05-09T04:50:23.509Z,6.13
2019-05-09T04:52:45.516Z,6.80
2019-05-09T04:55:14.245Z,12.13
2019-05-09T04:57:44.718Z,9.07
2019-05-09T05:00:15.197Z,8.73
2019-05-09T05:02:48.315Z,6.97
2019-05-09T05:05:18.101Z,10.47
2019-05-09T05:07:48.012Z,7.50
2019-05-09T05:10:18.270Z,9.90
2019-05-09T05:12:45.583Z,8.50
2019-05-09T05:15:14.784Z,8.73
2019-05-09T05:17:47.745Z,8.70
2019-05-09T05:20:18.557Z,9.17
2019-05-09T05:22:58.406Z,10.27
2019-05-09T05:25:27.991Z,6.03
2019-05-09T05:27:58.246Z,9.17
2019-05-09T05:30:28.405Z,7.73
2019-05-09T05:33:00.036Z,7.07
2019-05-09T05:35:37.549Z,9.07
2019-05-09T05:38:04.957Z,7.77
2019-05-09T05:40:43.631Z,7.87
2019-05-09T05:43:08.506Z,10.33
2019-05-09T05:45:39.148Z,8.20
2019-05-09T05:48:13.254Z,8.37
2019-05-09T05:50:42.476Z,11.80
2019-05-09T05:53:11.693Z,7.20
2019-05-09T05:55:40.902Z,9.63
2019-05-09T05:58:10.110Z,9.40
2019-05-09T06:00:40.526Z,8.80
2019-05-09T06:03:09.725Z,8.50
2019-05-09T06:05:38.955Z,7.60
2019-05-09T06:08:08.373Z,13.63
2019-05-09T06:10:37.939Z,10.33
2019-05-09T06:13:07.922Z,13.03
2019-05-09T06:15:38.042Z,9.43
2019-05-09T06:18:07.925Z,11.63
2019-05-09T06:20:38.623Z,15.90
2019-05-09T06:23:08.450Z,14.10
2019-05-09T06:25:35.649Z,12.87
2019-05-09T06:28:04.844Z,8.33
2019-05-09T06:30:34.257Z,7.83
2019-05-09T06:33:05.086Z,13.60
2019-05-09T06:35:32.656Z,11.10
2019-05-09T06:38:01.903Z,11.97
2019-05-09T06:40:32.405Z,13.30
2019-05-09T06:43:08.359Z,7.27
2019-05-09T06:45:44.937Z,9.53
2019-05-09T06:48:14.729Z,8.20
2019-05-09T06:50:45.129Z,10.83
2019-05-09T06:53:17.835Z,13.23
2019-05-09T06:55:44.798Z,12.47
2019-05-09T06:58:19.723Z,11.83
2019-05-09T07:00:52.316Z,10.40
2019-05-09T07:03:22.106Z,13.77
2019-05-09T07:06:24.901Z,9.10
2019-05-09T07:09:08.395Z,8.43
2019-05-09T07:11:38.066Z,12.23
2019-05-09T07:14:08.447Z,12.37
2019-05-09T07:16:38.795Z,12.80
2019-05-09T07:19:08.136Z,8.90
2019-05-09T07:21:42.526Z,13.47
2019-05-09T07:24:11.707Z,14.80
2019-05-09T07:26:40.971Z,11.63
2019-05-09T07:29:10.137Z,10.27
2019-05-09T07:31:43.589Z,13.17
2019-05-09T07:34:22.283Z,12.23
2019-05-09T07:36:51.478Z,12.73
2019-05-09T07:39:20.680Z,10.00
2019-05-09T07:41:49.872Z,11.67
2019-05-09T07:44:19.128Z,9.90
2019-05-09T07:46:52.693Z,7.80
2019-05-09T07:49:21.871Z,14.63
2019-05-09T07:51:51.073Z,11.07
2019-05-09T07:54:25.130Z,10.47
2019-05-09T07:56:49.514Z,13.33
2019-05-09T07:59:21.266Z,17.17
2019-05-09T08:01:50.441Z,12.60
2019-05-09T08:04:19.625Z,9.77
2019-05-09T08:06:50.079Z,11.50
2019-05-09T08:09:19.255Z,12.27
2019-05-09T08:11:48.511Z,12.33
2019-05-09T08:14:20.088Z,9.23
2019-05-09T08:16:49.279Z,16.83
2019-05-09T08:19:18.506Z,13.23
2019-05-09T08:21:48.089Z,14.33
2019-05-09T08:24:18.349Z,8.63
2019-05-09T08:26:47.798Z,11.60
2019-05-09T08:29:19.565Z,11.77
2019-05-09T08:31:48.384Z,15.83
2019-05-09T08:34:15.185Z,14.03
2019-05-09T08:36:44.480Z,10.13
2019-05-09T08:39:13.741Z,13.98
2019-05-09T08:41:42.991Z,14.90
2019-05-09T08:44:12.271Z,9.85
2019-05-09T08:46:41.523Z,15.50
2019-05-09T08:49:10.828Z,13.32
2019-05-09T08:52:10.086Z,11.65
2019-05-09T08:54:38.054Z,11.65
2019-05-09T08:57:07.618Z,11.45
2019-05-09T08:59:35.164Z,11.15
2019-05-09T09:02:15.756Z,10.55
2019-05-09T09:04:33.851Z,8.80
2019-05-09T09:07:03.099Z,11.28
2019-05-09T09:09:32.317Z,11.00
2019-05-09T09:12:01.589Z,22.48
2019-05-09T09:14:30.841Z,14.80
2019-05-09T09:17:00.074Z,9.68
2019-05-09T09:19:29.358Z,10.15
2019-05-09T09:22:00.721Z,6.83
2019-05-09T09:24:29.377Z,8.75
2019-05-09T09:26:58.685Z,18.30
2019-05-09T09:29:29.245Z,10.85
2019-05-09T09:31:59.611Z,9.63
2019-05-09T09:34:30.069Z,9.53
2019-05-09T09:37:04.214Z,35.63
2019-05-09T09:39:27.666Z,15.08
2019-05-09T09:41:58.656Z,11.05
2019-05-09T09:44:28.668Z,30.65
2019-05-09T09:46:57.965Z,14.18
2019-05-09T09:49:25.257Z,9.95
2019-05-09T09:51:54.442Z,14.55
2019-05-09T09:54:23.741Z,14.90
2019-05-09T09:56:53.673Z,23.73
2019-05-09T09:59:30.309Z,9.60
2019-05-09T10:01:59.665Z,9.15
2019-05-09T10:04:28.967Z,14.15
2019-05-09T10:06:58.464Z,15.60
2019-05-09T10:09:27.455Z,12.60
2019-05-09T10:12:00.060Z,19.35
2019-05-09T10:14:28.998Z,10.08
2019-05-09T10:17:02.653Z,11.35
2019-05-09T10:19:38.368Z,8.93
2019-05-09T10:22:08.452Z,9.60
2019-05-09T10:24:36.340Z,8.63
2019-05-09T10:27:08.374Z,12.33
2019-05-09T10:29:34.842Z,7.70
2019-05-09T10:32:04.101Z,14.80
2019-05-09T10:34:33.373Z,9.30
2019-05-09T10:37:02.577Z,6.83
2019-05-09T10:39:31.941Z,11.18
2019-05-09T10:42:01.807Z,7.28
2019-05-09T10:44:34.740Z,10.05
2019-05-09T10:47:14.553Z,7.90
2019-05-09T10:49:43.782Z,6.40
2019-05-09T10:52:14.620Z,9.20
2019-05-09T10:54:43.327Z,9.33
2019-05-09T10:57:12.656Z,11.30
2019-05-09T10:59:41.877Z,8.93
2019-05-09T11:02:12.422Z,10.25
2019-05-09T11:04:45.759Z,13.72
2019-05-09T11:07:10.942Z,9.85
2019-05-09T11:09:40.272Z,8.68
2019-05-09T11:12:09.545Z,14.80
2019-05-09T11:14:38.841Z,10.60
2019-05-09T11:17:17.550Z,11.00
2019-05-09T11:19:37.429Z,12.70
2019-05-09T11:22:08.048Z,14.50
2019-05-09T11:24:43.035Z,14.90
2019-05-09T11:27:08.317Z,9.68
2019-05-09T11:29:34.729Z,9.70
2019-05-09T11:32:03.966Z,14.23
2019-05-09T11:34:33.254Z,11.78
2019-05-09T11:37:02.600Z,12.47
2019-05-09T11:39:36.499Z,15.70
2019-05-09T11:42:01.186Z,10.03
2019-05-09T11:44:30.465Z,7.53
2019-05-09T11:46:59.713Z,8.35
2019-05-09T11:49:29.510Z,10.88
2019-05-09T11:51:58.242Z,10.43
2019-05-09T11:54:28.017Z,6.55
2019-05-09T11:56:57.636Z,9.98
2019-05-09T11:59:28.082Z,11.68
2019-05-09T12:01:55.331Z,12.30
2019-05-09T12:04:24.576Z,7.80
2019-05-09T12:06:54.577Z,9.18
2019-05-09T12:09:23.813Z,9.63
2019-05-09T12:11:53.115Z,10.32
2019-05-09T12:14:22.353Z,20.43
2019-05-09T12:16:51.577Z,21.70
2019-05-09T12:19:20.908Z,19.00
2019-05-09T12:21:51.481Z,16.55
2019-05-09T12:24:20.708Z,14.70
2019-05-09T12:26:49.963Z,11.45
2019-05-09T12:29:19.796Z,10.60
2019-05-09T12:31:48.681Z,11.05
2019-05-09T12:34:19.319Z,13.83
2019-05-09T12:36:49.342Z,13.28
2019-05-09T12:39:18.790Z,12.95
2019-05-09T12:41:48.225Z,8.85
2019-05-09T12:44:14.697Z,13.80
2019-05-09T12:46:43.950Z,11.10
2019-05-09T12:49:13.156Z,12.88
2019-05-09T12:51:42.446Z,9.85
2019-05-09T12:54:11.615Z,8.03
2019-05-09T12:56:40.880Z,14.30
2019-05-09T12:59:10.098Z,9.30
2019-05-09T13:01:40.751Z,9.93
2019-05-09T13:04:09.726Z,9.90
2019-05-09T13:06:38.132Z,15.72
2019-05-09T13:09:08.394Z,10.85
2019-05-09T13:11:38.640Z,11.95
2019-05-09T13:14:09.629Z,10.60
2019-05-09T13:16:49.502Z,11.65
2019-05-09T13:19:15.377Z,10.88
2019-05-09T13:21:44.656Z,15.85
2019-05-09T13:24:13.884Z,9.30
2019-05-09T13:26:43.334Z,12.00
2019-05-09T13:29:12.557Z,9.68
2019-05-09T13:31:41.777Z,11.80
2019-05-09T13:34:11.040Z,10.80
2019-05-09T13:36:40.253Z,11.30
2019-05-09T13:39:10.551Z,13.08
2019-05-09T13:41:39.296Z,13.32
2019-05-09T13:44:13.614Z,9.13
2019-05-09T13:46:38.790Z,7.35
2019-05-09T13:49:12.479Z,8.10
2019-05-09T13:51:47.457Z,7.75
2019-05-09T13:54:05.489Z,8.33
2019-05-09T13:56:34.702Z,9.43
2019-05-09T13:59:03.937Z,10.72
2019-05-09T14:01:33.127Z,11.83
2019-05-09T14:04:02.335Z,7.45
2019-05-09T14:06:31.550Z,8.68
2019-05-09T14:09:00.779Z,10.82
2019-05-09T14:11:30.003Z,8.40
2019-05-09T14:13:59.211Z,9.60
2019-05-09T14:16:28.846Z,10.70
2019-05-09T14:19:00.625Z,7.17
2019-05-09T14:21:29.562Z,8.68
2019-05-09T14:24:09.926Z,9.18
2019-05-09T14:26:27.593Z,8.33
2019-05-09T14:28:54.582Z,10.13
2019-05-09T14:31:23.798Z,7.30
2019-05-09T14:33:53.110Z,7.95
2019-05-09T14:36:22.334Z,7.42
2019-05-09T14:38:51.588Z,5.83
2019-05-09T14:41:20.839Z,7.42
2019-05-09T14:43:50.764Z,8.90
2019-05-09T14:46:20.059Z,5.42
2019-05-09T14:48:49.258Z,6.97
2019-05-09T14:51:18.733Z,6.72
2019-05-09T14:53:48.588Z,7.97
2019-05-09T14:56:16.964Z,7.37
2019-05-09T14:58:48.402Z,6.35
2019-05-09T15:01:15.399Z,5.42
2019-05-09T15:03:44.606Z,7.72
2019-05-09T15:06:13.851Z,6.80
2019-05-09T15:08:43.033Z,5.67
2019-05-09T15:11:12.253Z,12.03
2019-05-09T15:13:41.466Z,5.42
2019-05-09T15:16:10.669Z,5.28
2019-05-09T15:18:39.887Z,6.03
2019-05-09T15:21:09.118Z,7.70
2019-05-09T15:23:39.206Z,7.35
2019-05-09T15:26:07.758Z,7.10
2019-05-09T15:28:38.608Z,8.03
2019-05-09T15:31:08.700Z,8.70
2019-05-09T15:33:37.464Z,8.25
2019-05-09T15:36:04.491Z,9.03
2019-05-09T15:38:33.681Z,2.75
2019-05-09T15:41:02.954Z,6.07
2019-05-09T15:43:32.181Z,6.87
2019-05-09T15:46:08.420Z,5.07
2019-05-09T15:48:38.067Z,4.35
2019-05-09T15:51:07.515Z,4.55
2019-05-09T15:53:34.809Z,8.03
2019-05-09T15:56:04.001Z,4.13
2019-05-09T15:58:33.379Z,5.00
2019-05-09T16:01:02.586Z,4.80
2019-05-09T16:03:31.787Z,3.65
2019-05-09T16:06:01.777Z,4.90
2019-05-09T16:08:30.949Z,5.23
2019-05-09T16:11:00.193Z,5.40
2019-05-09T16:13:29.388Z,5.20
2019-05-09T16:15:58.614Z,6.17
2019-05-09T16:18:28.800Z,4.90
2019-05-09T16:20:58.023Z,4.30
2019-05-09T16:23:28.869Z,6.37
2019-05-09T16:25:55.565Z,4.00
2019-05-09T16:28:24.814Z,4.13
2019-05-09T16:30:54.031Z,4.87
2019-05-09T16:33:23.275Z,6.37
2019-05-09T16:35:53.002Z,6.50
2019-05-09T16:38:21.712Z,7.53
2019-05-09T16:40:50.894Z,6.57
2019-05-09T16:43:20.133Z,5.70
2019-05-09T16:45:49.323Z,5.77
2019-05-09T16:48:18.668Z,7.97
2019-05-09T16:51:00.650Z,8.40
2019-05-09T16:53:18.607Z,5.80
2019-05-09T16:55:46.317Z,119.90
2019-05-09T16:58:18.332Z,10.32
2019-05-09T17:00:47.512Z,7.33
2019-05-09T17:03:17.428Z,10.03
2019-05-09T17:05:44.595Z,8.00
2019-05-09T17:08:13.818Z,8.00
2019-05-09T17:10:43.078Z,6.03
2019-05-09T17:13:12.329Z,6.28
2019-05-09T17:15:41.824Z,7.70
2019-05-09T17:18:11.083Z,6.93
2019-05-09T17:20:44.649Z,6.80
2019-05-09T17:23:16.600Z,6.23
2019-05-09T17:25:48.019Z,10.67
2019-05-09T17:28:15.038Z,13.07
2019-05-09T17:30:44.305Z,11.17
2019-05-09T17:33:13.537Z,9.73
2019-05-09T17:35:42.720Z,9.03
2019-05-09T17:38:11.907Z,7.83
2019-05-09T17:40:41.097Z,8.10
2019-05-09T17:43:10.312Z,9.17
2019-05-09T17:45:42.215Z,9.20
2019-05-09T17:48:10.166Z,10.00
2019-05-09T17:50:39.381Z,10.40
2019-05-09T17:53:08.781Z,8.90
2019-05-09T17:55:38.281Z,9.47
2019-05-09T17:58:08.762Z,9.97
2019-05-09T18:00:37.992Z,8.87
2019-05-09T18:03:05.444Z,10.17
2019-05-09T18:05:35.945Z,9.57
2019-05-09T18:08:03.888Z,8.07
2019-05-09T18:10:33.065Z,17.50
2019-05-09T18:13:02.272Z,11.63
2019-05-09T18:15:31.447Z,11.03
2019-05-09T18:18:00.949Z,11.97
2019-05-09T18:20:30.158Z,13.97
2019-05-09T18:22:59.403Z,10.50
2019-05-09T18:25:28.678Z,13.90
2019-05-09T18:27:57.897Z,14.27
2019-05-09T18:30:27.981Z,14.03
2019-05-09T18:33:01.609Z,18.07
2019-05-09T18:35:30.869Z,18.97
2019-05-09T18:38:00.071Z,14.70
2019-05-09T18:40:29.311Z,14.95
2019-05-09T18:42:58.545Z,15.83
2019-05-09T18:45:28.593Z,14.43
2019-05-09T18:47:58.193Z,17.98
2019-05-09T18:50:27.123Z,18.80
2019-05-09T18:52:56.316Z,32.97
2019-05-09T18:55:26.503Z,26.37
2019-05-09T18:57:56.482Z,27.93
2019-05-09T19:00:25.682Z,23.07
2019-05-09T19:02:54.906Z,23.50
2019-05-09T19:05:24.418Z,26.67
2019-05-09T19:07:53.622Z,23.90
2019-05-09T19:10:22.830Z,21.63
2019-05-09T19:12:52.024Z,21.73
2019-05-09T19:15:27.094Z,23.87
2019-05-09T19:18:02.719Z,25.47
2019-05-09T19:21:04.476Z,21.73
2019-05-09T19:23:33.700Z,22.03
2019-05-09T19:26:05.973Z,19.13
2019-05-09T19:28:35.305Z,20.53
2019-05-09T19:31:04.533Z,22.87
2019-05-09T19:33:33.886Z,20.67
2019-05-09T19:36:03.083Z,20.93
2019-05-09T19:38:32.297Z,20.27
2019-05-09T19:41:01.529Z,21.43
2019-05-09T19:43:30.777Z,20.93
2019-05-09T19:46:00.728Z,20.60
2019-05-09T19:48:29.932Z,24.23
2019-05-09T19:50:59.152Z,21.03
2019-05-09T19:53:28.378Z,24.13
2019-05-09T19:55:59.361Z,20.30
2019-05-09T19:58:28.554Z,21.97
2019-05-09T20:01:00.610Z,22.90
2019-05-09T20:03:29.915Z,21.97
2019-05-09T20:05:59.119Z,26.47
2019-05-09T20:08:28.368Z,26.27
2019-05-09T20:11:04.119Z,27.30
2019-05-09T20:13:37.799Z,25.10
2019-05-09T20:16:07.057Z,23.70
2019-05-09T20:18:36.281Z,24.37
2019-05-09T20:21:05.529Z,25.40
2019-05-09T20:23:34.762Z,21.67
2019-05-09T20:26:03.968Z,25.23
2019-05-09T20:28:33.176Z,20.27
2019-05-09T20:31:02.365Z,23.27
2019-05-09T20:33:31.978Z,26.00
2019-05-09T20:36:02.285Z,21.63
2019-05-09T20:38:31.537Z,24.30
2019-05-09T20:41:00.781Z,25.03
2019-05-09T20:43:30.002Z,22.67
2019-05-09T20:45:59.220Z,22.63
2019-05-09T20:48:28.422Z,23.47
2019-05-09T20:50:57.697Z,24.77
2019-05-09T20:53:26.884Z,22.77
2019-05-09T20:55:56.109Z,22.93
2019-05-09T20:58:25.281Z,28.33
2019-05-09T21:00:54.526Z,25.83
2019-05-09T21:03:23.736Z,23.47
2019-05-09T21:05:53.184Z,23.37
2019-05-09T21:08:22.251Z,23.13
2019-05-09T21:10:51.433Z,31.20
2019-05-09T21:13:20.633Z,25.77
2019-05-09T21:15:49.838Z,29.90
2019-05-09T21:18:19.358Z,25.50
2019-05-09T21:20:48.562Z,28.40
2019-05-09T21:23:24.767Z,25.13
2019-05-09T21:25:46.981Z,25.80
2019-05-09T21:28:16.460Z,24.83
2019-05-09T21:30:45.674Z,27.23
2019-05-09T21:33:14.881Z,25.67
2019-05-09T21:35:44.143Z,32.87
2019-05-09T21:38:14.026Z,36.53
2019-05-09T21:40:43.540Z,37.90
2019-05-09T21:43:12.824Z,33.30
2019-05-09T21:45:42.029Z,34.43
2019-05-09T21:48:11.221Z,31.37
2019-05-09T21:50:40.495Z,32.97
2019-05-09T21:53:09.759Z,40.60
2019-05-09T21:55:38.994Z,35.57
2019-05-09T21:58:08.248Z,33.63
2019-05-09T22:00:37.536Z,39.57
2019-05-09T22:03:07.773Z,36.97
2019-05-09T22:05:37.321Z,37.83
2019-05-09T22:08:06.592Z,34.13
2019-05-09T22:10:35.795Z,39.77
2019-05-09T22:13:06.586Z,44.57
2019-05-09T22:15:37.286Z,36.20
2019-05-09T22:18:06.488Z,38.43
2019-05-09T22:20:35.720Z,38.57
2019-05-09T22:23:06.594Z,44.67
2019-05-09T22:25:34.136Z,46.00
2019-05-09T22:28:03.355Z,41.40
2019-05-09T22:30:32.546Z,42.80
2019-05-09T22:33:01.732Z,42.33
2019-05-09T22:35:31.111Z,38.50
2019-05-09T22:38:00.306Z,37.13
2019-05-09T22:40:29.555Z,47.40
2019-05-09T22:42:58.808Z,42.90
2019-05-09T22:45:28.013Z,41.47
2019-05-09T22:47:57.307Z,41.57
2019-05-09T22:50:26.546Z,40.93
2019-05-09T22:52:55.726Z,46.70
2019-05-09T22:55:24.946Z,44.07
2019-05-09T22:57:54.185Z,51.60
2019-05-09T23:00:23.411Z,38.77
2019-05-09T23:02:52.609Z,36.97
2019-05-09T23:05:21.881Z,29.87
2019-05-09T23:07:51.065Z,36.27
2019-05-09T23:10:20.305Z,31.63
2019-05-09T23:12:49.529Z,29.77
2019-05-09T23:15:18.742Z,27.90
2019-05-09T23:17:48.008Z,28.23
2019-05-09T23:20:50.710Z,24.20
2019-05-09T23:23:24.854Z,23.93
2019-05-09T23:25:54.073Z,31.20
2019-05-09T23:28:23.371Z,26.83
2019-05-09T23:30:53.292Z,23.40
2019-05-09T23:33:22.634Z,33.77
2019-05-09T23:35:51.896Z,28.63
2019-05-09T23:38:21.164Z,26.63
2019-05-09T23:40:50.371Z,34.10
2019-05-09T23:43:19.644Z,39.10
2019-05-09T23:45:48.889Z,39.60
2019-05-09T23:48:18.073Z,35.53
2019-05-09T23:50:47.343Z,41.97
2019-05-09T23:53:17.377Z,37.87
2019-05-09T23:55:52.094Z,43.07
2019-05-09T23:58:26.840Z,44.57
